sensor_id;sensor_type;location;lat;lon;timestamp;P1;durP1;ratioP1;P2;durP2;ratioP2
65471;SDS011;52068;50.710;14.492;2024-01-11T00:00:04;38.25;;;22.02;;
65471;SDS011;52068;50.710;14.492;2024-01-11T00:02:30;33.55;;;20.50;;
65471;SDS011;52068;50.710;14.492;2024-01-11T00:04:56;34.33;;;22.17;;
65471;SDS011;52068;50.710;14.492;2024-01-11T00:07:21;36.33;;;22.10;;
65471;SDS011;52068;50.710;14.492;2024-01-11T00:09:46;36.30;;;23.52;;
65471;SDS011;52068;50.710;14.492;2024-01-11T00:12:12;37.25;;;22.13;;
65471;SDS011;52068;50.710;14.492;2024-01-11T00:14:37;37.92;;;21.58;;
65471;SDS011;52068;50.710;14.492;2024-01-11T00:17:03;36.90;;;22.02;;
65471;SDS011;52068;50.710;14.492;2024-01-11T00:19:28;37.42;;;21.90;;
65471;SDS011;52068;50.710;14.492;2024-01-11T00:21:54;37.42;;;22.13;;
65471;SDS011;52068;50.710;14.492;2024-01-11T00:24:19;35.47;;;22.00;;
65471;SDS011;52068;50.710;14.492;2024-01-11T00:26:45;33.60;;;20.52;;
65471;SDS011;52068;50.710;14.492;2024-01-11T00:29:10;36.17;;;22.52;;
65471;SDS011;52068;50.710;14.492;2024-01-11T00:31:35;39.25;;;22.35;;
65471;SDS011;52068;50.710;14.492;2024-01-11T00:34:02;36.47;;;21.73;;
65471;SDS011;52068;50.710;14.492;2024-01-11T00:36:27;36.63;;;21.58;;
65471;SDS011;52068;50.710;14.492;2024-01-11T00:38:53;38.35;;;21.08;;
65471;SDS011;52068;50.710;14.492;2024-01-11T00:41:19;34.33;;;20.52;;
65471;SDS011;52068;50.710;14.492;2024-01-11T00:43:44;33.67;;;20.42;;
65471;SDS011;52068;50.710;14.492;2024-01-11T00:46:09;32.15;;;20.27;;
65471;SDS011;52068;50.710;14.492;2024-01-11T00:48:35;35.63;;;21.08;;
65471;SDS011;52068;50.710;14.492;2024-01-11T00:51:00;35.20;;;21.15;;
65471;SDS011;52068;50.710;14.492;2024-01-11T00:53:26;37.22;;;21.45;;
65471;SDS011;52068;50.710;14.492;2024-01-11T00:55:55;36.40;;;22.17;;
65471;SDS011;52068;50.710;14.492;2024-01-11T00:58:22;30.90;;;21.13;;
65471;SDS011;52068;50.710;14.492;2024-01-11T01:00:47;34.75;;;20.85;;
65471;SDS011;52068;50.710;14.492;2024-01-11T01:03:14;37.53;;;21.45;;
65471;SDS011;52068;50.710;14.492;2024-01-11T01:05:40;34.33;;;21.20;;
65471;SDS011;52068;50.710;14.492;2024-01-11T01:08:06;31.67;;;19.38;;
65471;SDS011;52068;50.710;14.492;2024-01-11T01:10:31;38.25;;;22.30;;
65471;SDS011;52068;50.710;14.492;2024-01-11T01:12:56;38.95;;;22.88;;
65471;SDS011;52068;50.710;14.492;2024-01-11T01:15:22;34.55;;;20.40;;
65471;SDS011;52068;50.710;14.492;2024-01-11T01:17:47;35.22;;;21.52;;
65471;SDS011;52068;50.710;14.492;2024-01-11T01:20:13;37.90;;;22.42;;
65471;SDS011;52068;50.710;14.492;2024-01-11T01:22:39;40.53;;;22.20;;
65471;SDS011;52068;50.710;14.492;2024-01-11T01:25:05;39.58;;;22.13;;
65471;SDS011;52068;50.710;14.492;2024-01-11T01:27:30;45.15;;;23.67;;
65471;SDS011;52068;50.710;14.492;2024-01-11T01:29:56;40.47;;;22.17;;
65471;SDS011;52068;50.710;14.492;2024-01-11T01:32:21;35.88;;;21.80;;
65471;SDS011;52068;50.710;14.492;2024-01-11T01:34:46;36.90;;;20.23;;
65471;SDS011;52068;50.710;14.492;2024-01-11T01:37:12;35.40;;;20.13;;
65471;SDS011;52068;50.710;14.492;2024-01-11T01:39:37;34.33;;;19.77;;
65471;SDS011;52068;50.710;14.492;2024-01-11T01:42:04;32.92;;;20.05;;
65471;SDS011;52068;50.710;14.492;2024-01-11T01:44:29;33.80;;;20.48;;
65471;SDS011;52068;50.710;14.492;2024-01-11T01:46:55;35.03;;;20.88;;
65471;SDS011;52068;50.710;14.492;2024-01-11T01:49:20;32.25;;;20.20;;
65471;SDS011;52068;50.710;14.492;2024-01-11T01:51:47;33.72;;;20.92;;
65471;SDS011;52068;50.710;14.492;2024-01-11T01:54:14;34.28;;;20.85;;
65471;SDS011;52068;50.710;14.492;2024-01-11T01:56:40;31.40;;;20.33;;
65471;SDS011;52068;50.710;14.492;2024-01-11T01:59:05;34.83;;;19.95;;
65471;SDS011;52068;50.710;14.492;2024-01-11T02:01:31;36.65;;;20.83;;
65471;SDS011;52068;50.710;14.492;2024-01-11T02:03:58;36.05;;;20.77;;
65471;SDS011;52068;50.710;14.492;2024-01-11T02:06:24;36.88;;;21.35;;
65471;SDS011;52068;50.710;14.492;2024-01-11T02:08:54;36.97;;;21.02;;
65471;SDS011;52068;50.710;14.492;2024-01-11T02:11:21;33.40;;;21.60;;
65471;SDS011;52068;50.710;14.492;2024-01-11T02:13:48;33.60;;;20.40;;
65471;SDS011;52068;50.710;14.492;2024-01-11T02:16:15;35.78;;;20.63;;
65471;SDS011;52068;50.710;14.492;2024-01-11T02:18:41;32.38;;;19.38;;
65471;SDS011;52068;50.710;14.492;2024-01-11T02:21:06;37.25;;;21.23;;
65471;SDS011;52068;50.710;14.492;2024-01-11T02:23:34;32.03;;;19.70;;
65471;SDS011;52068;50.710;14.492;2024-01-11T02:26:04;31.75;;;19.25;;
65471;SDS011;52068;50.710;14.492;2024-01-11T02:28:33;34.22;;;20.40;;
65471;SDS011;52068;50.710;14.492;2024-01-11T02:30:58;31.73;;;19.25;;
65471;SDS011;52068;50.710;14.492;2024-01-11T02:33:23;35.63;;;19.33;;
65471;SDS011;52068;50.710;14.492;2024-01-11T02:35:49;33.40;;;19.90;;
65471;SDS011;52068;50.710;14.492;2024-01-11T02:38:15;31.25;;;20.58;;
65471;SDS011;52068;50.710;14.492;2024-01-11T02:40:41;43.70;;;24.85;;
65471;SDS011;52068;50.710;14.492;2024-01-11T02:43:07;35.28;;;21.08;;
65471;SDS011;52068;50.710;14.492;2024-01-11T02:45:33;32.47;;;20.80;;
65471;SDS011;52068;50.710;14.492;2024-01-11T02:47:59;36.35;;;20.27;;
65471;SDS011;52068;50.710;14.492;2024-01-11T02:50:24;40.20;;;22.33;;
65471;SDS011;52068;50.710;14.492;2024-01-11T02:52:49;35.65;;;21.17;;
65471;SDS011;52068;50.710;14.492;2024-01-11T02:55:15;37.97;;;22.35;;
65471;SDS011;52068;50.710;14.492;2024-01-11T02:57:40;33.75;;;20.52;;
65471;SDS011;52068;50.710;14.492;2024-01-11T03:00:06;34.15;;;20.33;;
65471;SDS011;52068;50.710;14.492;2024-01-11T03:02:31;34.30;;;21.02;;
65471;SDS011;52068;50.710;14.492;2024-01-11T03:04:57;35.83;;;21.05;;
65471;SDS011;52068;50.710;14.492;2024-01-11T03:07:22;35.63;;;20.75;;
65471;SDS011;52068;50.710;14.492;2024-01-11T03:09:48;35.90;;;20.35;;
65471;SDS011;52068;50.710;14.492;2024-01-11T03:12:13;37.08;;;20.70;;
65471;SDS011;52068;50.710;14.492;2024-01-11T03:14:38;33.88;;;19.83;;
65471;SDS011;52068;50.710;14.492;2024-01-11T03:17:04;40.38;;;23.83;;
65471;SDS011;52068;50.710;14.492;2024-01-11T03:19:30;34.20;;;21.23;;
65471;SDS011;52068;50.710;14.492;2024-01-11T03:21:55;37.67;;;22.73;;
65471;SDS011;52068;50.710;14.492;2024-01-11T03:24:21;35.28;;;20.02;;
65471;SDS011;52068;50.710;14.492;2024-01-11T03:26:47;33.40;;;19.98;;
65471;SDS011;52068;50.710;14.492;2024-01-11T03:29:13;34.42;;;19.63;;
65471;SDS011;52068;50.710;14.492;2024-01-11T03:31:38;34.72;;;19.38;;
65471;SDS011;52068;50.710;14.492;2024-01-11T03:34:06;29.65;;;19.08;;
65471;SDS011;52068;50.710;14.492;2024-01-11T03:36:32;31.23;;;19.95;;
65471;SDS011;52068;50.710;14.492;2024-01-11T03:38:58;32.00;;;19.73;;
65471;SDS011;52068;50.710;14.492;2024-01-11T03:41:23;32.60;;;19.92;;
65471;SDS011;52068;50.710;14.492;2024-01-11T03:43:51;34.03;;;19.42;;
65471;SDS011;52068;50.710;14.492;2024-01-11T03:46:17;32.70;;;19.25;;
65471;SDS011;52068;50.710;14.492;2024-01-11T03:48:42;32.28;;;19.42;;
65471;SDS011;52068;50.710;14.492;2024-01-11T03:51:07;31.75;;;19.75;;
65471;SDS011;52068;50.710;14.492;2024-01-11T03:53:36;31.20;;;19.80;;
65471;SDS011;52068;50.710;14.492;2024-01-11T03:56:02;29.98;;;19.42;;
65471;SDS011;52068;50.710;14.492;2024-01-11T03:58:28;32.53;;;19.35;;
65471;SDS011;52068;50.710;14.492;2024-01-11T04:00:53;32.30;;;18.85;;
65471;SDS011;52068;50.710;14.492;2024-01-11T04:03:19;30.30;;;18.60;;
65471;SDS011;52068;50.710;14.492;2024-01-11T04:05:44;37.92;;;19.45;;
65471;SDS011;52068;50.710;14.492;2024-01-11T04:08:09;30.27;;;18.67;;
65471;SDS011;52068;50.710;14.492;2024-01-11T04:10:35;34.72;;;20.08;;
65471;SDS011;52068;50.710;14.492;2024-01-11T04:13:00;31.58;;;19.48;;
65471;SDS011;52068;50.710;14.492;2024-01-11T04:15:26;36.63;;;19.42;;
65471;SDS011;52068;50.710;14.492;2024-01-11T04:17:51;30.38;;;18.20;;
65471;SDS011;52068;50.710;14.492;2024-01-11T04:20:17;28.83;;;18.02;;
65471;SDS011;52068;50.710;14.492;2024-01-11T04:22:42;30.08;;;18.08;;
65471;SDS011;52068;50.710;14.492;2024-01-11T04:25:08;29.77;;;18.20;;
65471;SDS011;52068;50.710;14.492;2024-01-11T04:27:33;29.85;;;18.95;;
65471;SDS011;52068;50.710;14.492;2024-01-11T04:29:58;32.00;;;19.13;;
65471;SDS011;52068;50.710;14.492;2024-01-11T04:32:24;29.80;;;18.20;;
65471;SDS011;52068;50.710;14.492;2024-01-11T04:34:49;30.60;;;18.08;;
65471;SDS011;52068;50.710;14.492;2024-01-11T04:37:15;30.75;;;18.45;;
65471;SDS011;52068;50.710;14.492;2024-01-11T04:39:40;30.27;;;18.17;;
65471;SDS011;52068;50.710;14.492;2024-01-11T04:42:06;28.88;;;17.55;;
65471;SDS011;52068;50.710;14.492;2024-01-11T04:44:31;28.05;;;17.38;;
65471;SDS011;52068;50.710;14.492;2024-01-11T04:46:56;29.55;;;18.50;;
65471;SDS011;52068;50.710;14.492;2024-01-11T04:49:22;30.02;;;18.58;;
65471;SDS011;52068;50.710;14.492;2024-01-11T04:51:48;33.15;;;19.25;;
65471;SDS011;52068;50.710;14.492;2024-01-11T04:54:13;29.67;;;17.50;;
65471;SDS011;52068;50.710;14.492;2024-01-11T04:56:38;29.15;;;18.05;;
65471;SDS011;52068;50.710;14.492;2024-01-11T04:59:04;29.40;;;17.38;;
65471;SDS011;52068;50.710;14.492;2024-01-11T05:01:29;32.35;;;18.90;;
65471;SDS011;52068;50.710;14.492;2024-01-11T05:03:55;32.58;;;19.00;;
65471;SDS011;52068;50.710;14.492;2024-01-11T05:06:21;29.45;;;17.52;;
65471;SDS011;52068;50.710;14.492;2024-01-11T05:08:47;29.60;;;16.88;;
65471;SDS011;52068;50.710;14.492;2024-01-11T05:11:15;29.33;;;18.27;;
65471;SDS011;52068;50.710;14.492;2024-01-11T05:13:41;28.13;;;16.13;;
65471;SDS011;52068;50.710;14.492;2024-01-11T05:16:06;26.35;;;16.15;;
65471;SDS011;52068;50.710;14.492;2024-01-11T05:18:32;27.20;;;16.60;;
65471;SDS011;52068;50.710;14.492;2024-01-11T05:20:57;29.30;;;16.83;;
65471;SDS011;52068;50.710;14.492;2024-01-11T05:23:22;29.15;;;17.15;;
65471;SDS011;52068;50.710;14.492;2024-01-11T05:25:48;28.42;;;17.48;;
65471;SDS011;52068;50.710;14.492;2024-01-11T05:28:13;28.02;;;17.70;;
65471;SDS011;52068;50.710;14.492;2024-01-11T05:30:38;27.50;;;17.90;;
65471;SDS011;52068;50.710;14.492;2024-01-11T05:33:04;32.67;;;18.00;;
65471;SDS011;52068;50.710;14.492;2024-01-11T05:35:29;33.90;;;18.70;;
65471;SDS011;52068;50.710;14.492;2024-01-11T05:37:55;28.38;;;16.67;;
65471;SDS011;52068;50.710;14.492;2024-01-11T05:40:20;29.13;;;17.80;;
65471;SDS011;52068;50.710;14.492;2024-01-11T05:42:46;28.67;;;17.15;;
65471;SDS011;52068;50.710;14.492;2024-01-11T05:45:12;30.23;;;18.15;;
65471;SDS011;52068;50.710;14.492;2024-01-11T05:47:37;27.30;;;17.65;;
65471;SDS011;52068;50.710;14.492;2024-01-11T05:50:03;29.77;;;17.25;;
65471;SDS011;52068;50.710;14.492;2024-01-11T05:52:28;26.33;;;16.67;;
65471;SDS011;52068;50.710;14.492;2024-01-11T05:54:53;27.15;;;16.13;;
65471;SDS011;52068;50.710;14.492;2024-01-11T05:57:19;29.88;;;16.98;;
65471;SDS011;52068;50.710;14.492;2024-01-11T05:59:44;33.35;;;17.55;;
65471;SDS011;52068;50.710;14.492;2024-01-11T06:02:10;25.35;;;15.65;;
65471;SDS011;52068;50.710;14.492;2024-01-11T06:04:36;27.00;;;17.25;;
65471;SDS011;52068;50.710;14.492;2024-01-11T06:07:01;24.70;;;15.63;;
65471;SDS011;52068;50.710;14.492;2024-01-11T06:09:27;27.75;;;15.57;;
65471;SDS011;52068;50.710;14.492;2024-01-11T06:11:52;25.73;;;15.40;;
65471;SDS011;52068;50.710;14.492;2024-01-11T06:14:17;24.88;;;15.60;;
65471;SDS011;52068;50.710;14.492;2024-01-11T06:16:43;26.58;;;15.68;;
65471;SDS011;52068;50.710;14.492;2024-01-11T06:19:08;23.90;;;15.35;;
65471;SDS011;52068;50.710;14.492;2024-01-11T06:21:34;25.02;;;16.05;;
65471;SDS011;52068;50.710;14.492;2024-01-11T06:23:59;23.77;;;15.32;;
65471;SDS011;52068;50.710;14.492;2024-01-11T06:26:25;32.75;;;15.43;;
65471;SDS011;52068;50.710;14.492;2024-01-11T06:28:50;27.02;;;16.23;;
65471;SDS011;52068;50.710;14.492;2024-01-11T06:31:15;27.38;;;16.42;;
65471;SDS011;52068;50.710;14.492;2024-01-11T06:33:42;28.70;;;16.33;;
65471;SDS011;52068;50.710;14.492;2024-01-11T06:36:08;33.20;;;15.88;;
65471;SDS011;52068;50.710;14.492;2024-01-11T06:38:34;26.77;;;15.95;;
65471;SDS011;52068;50.710;14.492;2024-01-11T06:40:59;28.20;;;16.38;;
65471;SDS011;52068;50.710;14.492;2024-01-11T06:43:25;25.77;;;15.50;;
65471;SDS011;52068;50.710;14.492;2024-01-11T06:45:50;25.10;;;16.20;;
65471;SDS011;52068;50.710;14.492;2024-01-11T06:48:16;37.85;;;14.95;;
65471;SDS011;52068;50.710;14.492;2024-01-11T06:50:41;24.95;;;15.43;;
65471;SDS011;52068;50.710;14.492;2024-01-11T06:53:07;29.55;;;16.70;;
65471;SDS011;52068;50.710;14.492;2024-01-11T06:55:32;24.65;;;15.20;;
65471;SDS011;52068;50.710;14.492;2024-01-11T06:57:57;29.20;;;16.55;;
65471;SDS011;52068;50.710;14.492;2024-01-11T07:00:24;29.30;;;16.42;;
65471;SDS011;52068;50.710;14.492;2024-01-11T07:02:49;23.30;;;14.85;;
65471;SDS011;52068;50.710;14.492;2024-01-11T07:05:15;25.35;;;14.98;;
65471;SDS011;52068;50.710;14.492;2024-01-11T07:07:40;26.77;;;15.73;;
65471;SDS011;52068;50.710;14.492;2024-01-11T07:10:06;26.85;;;15.90;;
65471;SDS011;52068;50.710;14.492;2024-01-11T07:12:31;23.25;;;14.93;;
65471;SDS011;52068;50.710;14.492;2024-01-11T07:14:57;25.35;;;14.85;;
65471;SDS011;52068;50.710;14.492;2024-01-11T07:17:23;25.33;;;15.82;;
65471;SDS011;52068;50.710;14.492;2024-01-11T07:19:49;27.58;;;16.02;;
65471;SDS011;52068;50.710;14.492;2024-01-11T07:22:14;25.77;;;16.83;;
65471;SDS011;52068;50.710;14.492;2024-01-11T07:24:39;22.17;;;14.90;;
65471;SDS011;52068;50.710;14.492;2024-01-11T07:27:05;26.92;;;16.23;;
65471;SDS011;52068;50.710;14.492;2024-01-11T07:29:31;25.90;;;16.15;;
65471;SDS011;52068;50.710;14.492;2024-01-11T07:31:57;26.67;;;16.63;;
65471;SDS011;52068;50.710;14.492;2024-01-11T07:34:22;25.45;;;16.20;;
65471;SDS011;52068;50.710;14.492;2024-01-11T07:36:49;27.88;;;16.45;;
65471;SDS011;52068;50.710;14.492;2024-01-11T07:39:14;31.15;;;17.50;;
65471;SDS011;52068;50.710;14.492;2024-01-11T07:41:40;29.15;;;17.65;;
65471;SDS011;52068;50.710;14.492;2024-01-11T07:44:06;30.23;;;18.13;;
65471;SDS011;52068;50.710;14.492;2024-01-11T07:46:31;25.92;;;15.82;;
65471;SDS011;52068;50.710;14.492;2024-01-11T07:48:56;25.20;;;16.33;;
65471;SDS011;52068;50.710;14.492;2024-01-11T07:51:24;25.38;;;15.93;;
65471;SDS011;52068;50.710;14.492;2024-01-11T07:53:49;24.25;;;14.93;;
65471;SDS011;52068;50.710;14.492;2024-01-11T07:56:15;25.17;;;15.38;;
65471;SDS011;52068;50.710;14.492;2024-01-11T07:58:40;28.23;;;15.93;;
65471;SDS011;52068;50.710;14.492;2024-01-11T08:01:06;23.73;;;14.57;;
65471;SDS011;52068;50.710;14.492;2024-01-11T08:03:32;20.95;;;14.05;;
65471;SDS011;52068;50.710;14.492;2024-01-11T08:05:59;24.23;;;15.35;;
65471;SDS011;52068;50.710;14.492;2024-01-11T08:08:25;23.25;;;15.05;;
65471;SDS011;52068;50.710;14.492;2024-01-11T08:10:51;25.23;;;15.55;;
65471;SDS011;52068;50.710;14.492;2024-01-11T08:13:16;24.35;;;15.20;;
65471;SDS011;52068;50.710;14.492;2024-01-11T08:15:43;24.75;;;15.80;;
65471;SDS011;52068;50.710;14.492;2024-01-11T08:18:08;20.95;;;15.40;;
65471;SDS011;52068;50.710;14.492;2024-01-11T08:20:34;21.40;;;15.07;;
65471;SDS011;52068;50.710;14.492;2024-01-11T08:23:00;24.20;;;15.32;;
65471;SDS011;52068;50.710;14.492;2024-01-11T08:25:25;23.35;;;15.93;;
65471;SDS011;52068;50.710;14.492;2024-01-11T08:27:51;19.98;;;13.73;;
65471;SDS011;52068;50.710;14.492;2024-01-11T08:30:16;21.55;;;14.93;;
65471;SDS011;52068;50.710;14.492;2024-01-11T08:32:42;19.23;;;14.23;;
65471;SDS011;52068;50.710;14.492;2024-01-11T08:35:11;21.77;;;14.38;;
65471;SDS011;52068;50.710;14.492;2024-01-11T08:37:36;21.95;;;13.43;;
65471;SDS011;52068;50.710;14.492;2024-01-11T08:40:02;21.20;;;14.55;;
65471;SDS011;52068;50.710;14.492;2024-01-11T08:42:29;21.80;;;14.25;;
65471;SDS011;52068;50.710;14.492;2024-01-11T08:44:56;21.10;;;13.95;;
65471;SDS011;52068;50.710;14.492;2024-01-11T08:47:21;24.55;;;14.07;;
65471;SDS011;52068;50.710;14.492;2024-01-11T08:49:46;25.38;;;14.18;;
65471;SDS011;52068;50.710;14.492;2024-01-11T08:52:12;18.77;;;12.70;;
65471;SDS011;52068;50.710;14.492;2024-01-11T08:54:37;23.42;;;13.38;;
65471;SDS011;52068;50.710;14.492;2024-01-11T08:57:03;21.80;;;13.00;;
65471;SDS011;52068;50.710;14.492;2024-01-11T08:59:28;19.42;;;13.40;;
65471;SDS011;52068;50.710;14.492;2024-01-11T09:01:54;19.85;;;13.32;;
65471;SDS011;52068;50.710;14.492;2024-01-11T09:04:19;19.08;;;14.10;;
65471;SDS011;52068;50.710;14.492;2024-01-11T09:06:45;22.90;;;13.10;;
65471;SDS011;52068;50.710;14.492;2024-01-11T09:09:10;22.20;;;13.07;;
65471;SDS011;52068;50.710;14.492;2024-01-11T09:11:38;17.73;;;12.18;;
65471;SDS011;52068;50.710;14.492;2024-01-11T09:14:07;18.90;;;12.80;;
65471;SDS011;52068;50.710;14.492;2024-01-11T09:16:32;17.75;;;13.13;;
65471;SDS011;52068;50.710;14.492;2024-01-11T09:18:58;20.90;;;13.15;;
65471;SDS011;52068;50.710;14.492;2024-01-11T09:21:25;18.48;;;12.73;;
65471;SDS011;52068;50.710;14.492;2024-01-11T09:23:51;19.50;;;12.88;;
65471;SDS011;52068;50.710;14.492;2024-01-11T09:26:16;17.02;;;11.73;;
65471;SDS011;52068;50.710;14.492;2024-01-11T09:28:42;16.92;;;11.98;;
65471;SDS011;52068;50.710;14.492;2024-01-11T09:31:07;16.90;;;11.45;;
65471;SDS011;52068;50.710;14.492;2024-01-11T09:33:33;20.52;;;12.15;;
65471;SDS011;52068;50.710;14.492;2024-01-11T09:35:59;19.52;;;11.57;;
65471;SDS011;52068;50.710;14.492;2024-01-11T09:38:24;19.27;;;12.45;;
65471;SDS011;52068;50.710;14.492;2024-01-11T09:40:57;18.42;;;11.70;;
65471;SDS011;52068;50.710;14.492;2024-01-11T09:43:30;16.88;;;12.38;;
65471;SDS011;52068;50.710;14.492;2024-01-11T09:45:58;19.42;;;12.18;;
65471;SDS011;52068;50.710;14.492;2024-01-11T09:48:25;17.35;;;12.18;;
65471;SDS011;52068;50.710;14.492;2024-01-11T09:50:51;21.38;;;11.65;;
65471;SDS011;52068;50.710;14.492;2024-01-11T09:53:18;16.63;;;11.30;;
65471;SDS011;52068;50.710;14.492;2024-01-11T09:55:46;17.52;;;12.25;;
65471;SDS011;52068;50.710;14.492;2024-01-11T09:58:12;19.70;;;11.27;;
65471;SDS011;52068;50.710;14.492;2024-01-11T10:00:38;16.65;;;11.77;;
65471;SDS011;52068;50.710;14.492;2024-01-11T10:03:05;17.10;;;11.70;;
65471;SDS011;52068;50.710;14.492;2024-01-11T10:05:31;17.45;;;11.82;;
65471;SDS011;52068;50.710;14.492;2024-01-11T10:07:59;17.20;;;11.48;;
65471;SDS011;52068;50.710;14.492;2024-01-11T10:10:24;18.08;;;11.65;;
65471;SDS011;52068;50.710;14.492;2024-01-11T10:12:50;16.90;;;11.30;;
65471;SDS011;52068;50.710;14.492;2024-01-11T10:15:16;15.00;;;10.70;;
65471;SDS011;52068;50.710;14.492;2024-01-11T10:17:44;17.55;;;11.13;;
65471;SDS011;52068;50.710;14.492;2024-01-11T10:20:11;17.23;;;11.02;;
65471;SDS011;52068;50.710;14.492;2024-01-11T10:22:39;16.15;;;10.60;;
65471;SDS011;52068;50.710;14.492;2024-01-11T10:25:09;15.98;;;11.18;;
65471;SDS011;52068;50.710;14.492;2024-01-11T10:30:08;16.45;;;10.27;;
65471;SDS011;52068;50.710;14.492;2024-01-11T10:32:35;17.88;;;10.68;;
65471;SDS011;52068;50.710;14.492;2024-01-11T10:35:03;14.75;;;9.77;;
65471;SDS011;52068;50.710;14.492;2024-01-11T10:37:30;14.88;;;9.57;;
65471;SDS011;52068;50.710;14.492;2024-01-11T10:39:58;14.20;;;9.98;;
65471;SDS011;52068;50.710;14.492;2024-01-11T10:42:34;14.63;;;9.73;;
65471;SDS011;52068;50.710;14.492;2024-01-11T10:45:02;17.13;;;10.02;;
65471;SDS011;52068;50.710;14.492;2024-01-11T10:47:30;15.63;;;9.15;;
65471;SDS011;52068;50.710;14.492;2024-01-11T10:49:56;15.25;;;9.80;;
65471;SDS011;52068;50.710;14.492;2024-01-11T10:52:22;14.40;;;10.20;;
65471;SDS011;52068;50.710;14.492;2024-01-11T10:54:59;16.23;;;9.38;;
65471;SDS011;52068;50.710;14.492;2024-01-11T10:57:25;13.73;;;9.68;;
65471;SDS011;52068;50.710;14.492;2024-01-11T10:59:53;13.57;;;9.75;;
65471;SDS011;52068;50.710;14.492;2024-01-11T11:02:19;15.10;;;10.25;;
65471;SDS011;52068;50.710;14.492;2024-01-11T11:04:46;15.77;;;10.65;;
65471;SDS011;52068;50.710;14.492;2024-01-11T11:07:13;14.77;;;10.23;;
65471;SDS011;52068;50.710;14.492;2024-01-11T11:09:40;12.77;;;9.15;;
65471;SDS011;52068;50.710;14.492;2024-01-11T11:12:09;14.02;;;9.77;;
65471;SDS011;52068;50.710;14.492;2024-01-11T11:14:35;12.48;;;9.32;;
65471;SDS011;52068;50.710;14.492;2024-01-11T11:17:03;15.50;;;10.13;;
65471;SDS011;52068;50.710;14.492;2024-01-11T11:19:29;11.63;;;8.98;;
65471;SDS011;52068;50.710;14.492;2024-01-11T11:21:55;12.82;;;8.80;;
65471;SDS011;52068;50.710;14.492;2024-01-11T11:24:20;14.35;;;9.65;;
65471;SDS011;52068;50.710;14.492;2024-01-11T11:26:46;13.63;;;9.07;;
65471;SDS011;52068;50.710;14.492;2024-01-11T11:29:12;12.55;;;9.40;;
65471;SDS011;52068;50.710;14.492;2024-01-11T11:31:37;11.50;;;8.68;;
65471;SDS011;52068;50.710;14.492;2024-01-11T11:34:07;12.65;;;9.13;;
65471;SDS011;52068;50.710;14.492;2024-01-11T11:36:36;12.85;;;8.63;;
65471;SDS011;52068;50.710;14.492;2024-01-11T11:39:01;14.30;;;9.40;;
65471;SDS011;52068;50.710;14.492;2024-01-11T11:41:27;12.77;;;9.05;;
65471;SDS011;52068;50.710;14.492;2024-01-11T11:43:58;14.02;;;8.65;;
65471;SDS011;52068;50.710;14.492;2024-01-11T11:46:28;12.55;;;8.00;;
65471;SDS011;52068;50.710;14.492;2024-01-11T11:48:54;13.25;;;8.60;;
65471;SDS011;52068;50.710;14.492;2024-01-11T11:51:20;15.00;;;9.13;;
65471;SDS011;52068;50.710;14.492;2024-01-11T11:53:47;12.32;;;8.65;;
65471;SDS011;52068;50.710;14.492;2024-01-11T11:56:14;13.63;;;9.10;;
65471;SDS011;52068;50.710;14.492;2024-01-11T11:58:42;12.68;;;8.57;;
65471;SDS011;52068;50.710;14.492;2024-01-11T12:01:09;11.88;;;8.55;;
65471;SDS011;52068;50.710;14.492;2024-01-11T12:03:35;11.27;;;8.18;;
65471;SDS011;52068;50.710;14.492;2024-01-11T12:06:06;11.25;;;8.15;;
65471;SDS011;52068;50.710;14.492;2024-01-11T12:08:33;10.32;;;7.78;;
65471;SDS011;52068;50.710;14.492;2024-01-11T12:11:02;11.07;;;7.40;;
65471;SDS011;52068;50.710;14.492;2024-01-11T12:13:28;12.10;;;8.07;;
65471;SDS011;52068;50.710;14.492;2024-01-11T12:15:55;11.88;;;7.82;;
65471;SDS011;52068;50.710;14.492;2024-01-11T12:18:20;10.32;;;7.70;;
65471;SDS011;52068;50.710;14.492;2024-01-11T12:20:46;10.88;;;7.78;;
65471;SDS011;52068;50.710;14.492;2024-01-11T12:23:11;11.18;;;7.97;;
65471;SDS011;52068;50.710;14.492;2024-01-11T12:25:39;10.90;;;7.70;;
65471;SDS011;52068;50.710;14.492;2024-01-11T12:28:05;13.60;;;8.25;;
65471;SDS011;52068;50.710;14.492;2024-01-11T12:30:31;11.13;;;7.75;;
65471;SDS011;52068;50.710;14.492;2024-01-11T12:32:57;12.20;;;7.80;;
65471;SDS011;52068;50.710;14.492;2024-01-11T12:35:23;11.48;;;7.93;;
65471;SDS011;52068;50.710;14.492;2024-01-11T12:37:53;9.52;;;7.43;;
65471;SDS011;52068;50.710;14.492;2024-01-11T12:40:20;10.07;;;7.10;;
65471;SDS011;52068;50.710;14.492;2024-01-11T12:42:45;12.70;;;7.88;;
65471;SDS011;52068;50.710;14.492;2024-01-11T12:45:11;10.65;;;7.38;;
65471;SDS011;52068;50.710;14.492;2024-01-11T12:47:36;9.70;;;6.60;;
65471;SDS011;52068;50.710;14.492;2024-01-11T12:50:03;10.45;;;7.00;;
65471;SDS011;52068;50.710;14.492;2024-01-11T12:52:28;8.95;;;6.95;;
65471;SDS011;52068;50.710;14.492;2024-01-11T12:54:55;9.23;;;6.65;;
65471;SDS011;52068;50.710;14.492;2024-01-11T12:57:22;9.95;;;7.43;;
65471;SDS011;52068;50.710;14.492;2024-01-11T12:59:48;10.27;;;7.45;;
65471;SDS011;52068;50.710;14.492;2024-01-11T13:02:14;10.43;;;7.18;;
65471;SDS011;52068;50.710;14.492;2024-01-11T13:04:42;9.43;;;7.32;;
65471;SDS011;52068;50.710;14.492;2024-01-11T13:07:10;8.80;;;6.93;;
65471;SDS011;52068;50.710;14.492;2024-01-11T13:09:36;10.10;;;7.53;;
65471;SDS011;52068;50.710;14.492;2024-01-11T13:12:01;8.50;;;6.45;;
65471;SDS011;52068;50.710;14.492;2024-01-11T13:14:28;9.13;;;6.57;;
65471;SDS011;52068;50.710;14.492;2024-01-11T13:16:53;9.15;;;6.50;;
65471;SDS011;52068;50.710;14.492;2024-01-11T13:19:19;9.23;;;7.00;;
65471;SDS011;52068;50.710;14.492;2024-01-11T13:21:45;8.75;;;6.40;;
65471;SDS011;52068;50.710;14.492;2024-01-11T13:24:10;9.00;;;6.32;;
65471;SDS011;52068;50.710;14.492;2024-01-11T13:26:38;10.20;;;6.97;;
65471;SDS011;52068;50.710;14.492;2024-01-11T13:29:04;9.63;;;6.68;;
65471;SDS011;52068;50.710;14.492;2024-01-11T13:31:30;11.13;;;6.10;;
65471;SDS011;52068;50.710;14.492;2024-01-11T13:33:56;9.23;;;6.53;;
65471;SDS011;52068;50.710;14.492;2024-01-11T13:36:22;9.35;;;6.72;;
65471;SDS011;52068;50.710;14.492;2024-01-11T13:38:48;9.35;;;6.95;;
65471;SDS011;52068;50.710;14.492;2024-01-11T13:41:14;7.13;;;5.70;;
65471;SDS011;52068;50.710;14.492;2024-01-11T13:43:41;8.23;;;5.97;;
65471;SDS011;52068;50.710;14.492;2024-01-11T13:46:06;8.48;;;5.95;;
65471;SDS011;52068;50.710;14.492;2024-01-11T13:48:32;8.18;;;6.03;;
65471;SDS011;52068;50.710;14.492;2024-01-11T13:50:58;9.57;;;6.50;;
65471;SDS011;52068;50.710;14.492;2024-01-11T13:53:24;8.75;;;5.68;;
65471;SDS011;52068;50.710;14.492;2024-01-11T13:55:50;9.13;;;6.32;;
65471;SDS011;52068;50.710;14.492;2024-01-11T13:58:16;8.32;;;6.18;;
65471;SDS011;52068;50.710;14.492;2024-01-11T14:00:43;8.43;;;6.32;;
65471;SDS011;52068;50.710;14.492;2024-01-11T14:03:08;9.65;;;6.70;;
65471;SDS011;52068;50.710;14.492;2024-01-11T14:05:35;9.77;;;6.45;;
65471;SDS011;52068;50.710;14.492;2024-01-11T14:08:02;7.15;;;5.68;;